Ancramdale, New York
Current Conditions -  °F | °C
As of 12:19 PM on Wednesday 26 Nov 2014 (Local Time) from KPOU Reporting Station
Moderate Snow Moderate Snow  
Wind Chill: 30°   Ceiling: 400
Heat Index: 34°   Visibility: 0.5mi
Dew Point: 31°   Wind: 5mph
Humidity: 89%   Direction: 10°N
Pressure: 30.06"   Gusts: NA
Location:  42.02°N, 73.59°W
Report Text: KPOU 261719Z 01004KT 1/2SM SN FG BKN004 OVC008 01/M01 A3006 RMK AO2 P0005 T00111006
Loading
Personal Weather Stations






























Interactive Weather Map New forecast layout! Learn more

10-Day Weather Forecast

Advertisements
Track Severe Weather on mobile